createdAt,value
2019-03-06T00:00:57.517Z,98048.47
2019-03-06T00:03:30.447Z,98052.04
2019-03-06T00:06:01.068Z,98048.31
2019-03-06T00:08:31.396Z,98041.83
2019-03-06T00:11:04.176Z,98051.52
2019-03-06T00:13:35.071Z,98042.48
2019-03-06T00:16:05.661Z,98045.96
2019-03-06T00:18:36.188Z,98031.84
2019-03-06T00:21:06.660Z,98032.28
2019-03-06T00:23:40.491Z,98016.11
2019-03-06T00:26:12.404Z,98002.56
2019-03-06T00:28:43.009Z,97984.55
2019-03-06T00:31:13.729Z,97987.27
2019-03-06T00:33:47.545Z,97982.31
2019-03-06T00:36:22.821Z,97959.03
2019-03-06T00:38:53.408Z,97955.81
2019-03-06T00:41:38.384Z,97953.80
2019-03-06T00:44:09.047Z,97959.21
2019-03-06T00:46:39.553Z,97949.80
2019-03-06T00:49:10.342Z,97940.12
2019-03-06T00:51:40.910Z,97939.30
2019-03-06T00:54:11.696Z,97938.30
2019-03-06T00:56:42.468Z,97937.08
2019-03-06T00:59:13.316Z,97937.19
2019-03-06T01:01:43.993Z,97929.20
2019-03-06T01:04:14.747Z,97919.31
2019-03-06T01:06:45.578Z,97914.47
2019-03-06T01:09:18.021Z,97911.09
2019-03-06T01:11:48.726Z,97912.26
2019-03-06T01:14:19.122Z,97905.53
2019-03-06T01:16:49.764Z,97905.20
2019-03-06T01:19:20.372Z,97903.94
2019-03-06T01:21:51.035Z,97910.59
2019-03-06T01:24:21.560Z,97920.02
2019-03-06T01:26:52.337Z,97914.23
2019-03-06T01:29:22.862Z,97921.33
2019-03-06T01:31:53.448Z,97926.80
2019-03-06T01:34:55.013Z,97932.48
2019-03-06T01:37:53.314Z,97923.30
2019-03-06T01:40:51.902Z,97915.73
2019-03-06T01:43:30.391Z,97909.02
2019-03-06T01:46:01.244Z,97913.50
2019-03-06T01:48:32.821Z,97912.52
2019-03-06T01:51:03.483Z,97920.47
2019-03-06T01:53:36.962Z,97925.09
2019-03-06T01:56:07.643Z,97938.53
2019-03-06T01:58:38.288Z,97934.81
2019-03-06T02:01:08.868Z,97945.66
2019-03-06T02:03:39.560Z,97942.91
2019-03-06T02:06:10.068Z,97948.56
2019-03-06T02:08:41.150Z,97939.94
2019-03-06T02:11:12.096Z,97948.73
2019-03-06T02:13:42.785Z,97944.80
2019-03-06T02:16:13.343Z,97943.98
2019-03-06T02:18:44.462Z,97952.70
2019-03-06T02:21:15.043Z,97950.86
2019-03-06T02:23:45.763Z,97939.40
2019-03-06T02:26:16.286Z,97944.45
2019-03-06T02:28:46.996Z,97944.38
2019-03-06T02:31:17.670Z,97942.28
2019-03-06T02:33:48.061Z,97947.76
2019-03-06T02:36:18.749Z,97948.92
2019-03-06T02:38:49.362Z,97948.75
2019-03-06T02:41:20.381Z,97940.29
2019-03-06T02:43:50.781Z,97948.82
2019-03-06T02:46:21.535Z,97946.62
2019-03-06T02:48:52.292Z,97941.77
2019-03-06T02:51:23.203Z,97938.95
2019-03-06T02:53:53.878Z,97937.52
2019-03-06T02:56:24.583Z,97922.59
2019-03-06T02:59:31.920Z,97929.38
2019-03-06T03:02:25.588Z,97935.60
2019-03-06T03:05:20.749Z,97935.37
2019-03-06T03:07:51.321Z,97937.05
2019-03-06T03:10:21.886Z,97937.70
2019-03-06T03:12:52.702Z,97936.65
2019-03-06T03:15:23.449Z,97934.52
2019-03-06T03:17:53.852Z,97937.70
2019-03-06T03:20:24.502Z,97940.88
2019-03-06T03:22:55.227Z,97940.56
2019-03-06T03:25:25.883Z,97946.52
2019-03-06T03:27:56.683Z,97952.42
2019-03-06T03:30:27.487Z,97952.59
2019-03-06T03:32:58.152Z,97958.81
2019-03-06T03:35:28.888Z,97963.38
2019-03-06T03:38:02.460Z,97958.50
2019-03-06T03:40:33.424Z,97951.86
2019-03-06T03:43:04.049Z,97956.68
2019-03-06T03:45:34.729Z,97954.27
2019-03-06T03:48:05.566Z,97951.55
2019-03-06T03:50:36.453Z,97950.43
2019-03-06T03:53:07.156Z,97954.55
2019-03-06T03:55:37.708Z,97958.05
2019-03-06T03:58:08.535Z,97955.95
2019-03-06T04:00:39.947Z,97964.18
2019-03-06T04:03:10.408Z,97972.02
2019-03-06T04:05:41.140Z,97974.64
2019-03-06T04:08:13.090Z,97975.61
2019-03-06T04:10:43.584Z,97980.36
2019-03-06T04:13:16.598Z,97988.65
2019-03-06T04:15:47.388Z,97990.16
2019-03-06T04:18:17.838Z,97997.02
2019-03-06T04:20:48.622Z,97996.50
2019-03-06T04:23:19.310Z,97994.71
2019-03-06T04:25:50.062Z,97995.14
2019-03-06T04:28:20.442Z,97998.62
2019-03-06T04:30:53.739Z,97992.84
2019-03-06T04:33:24.658Z,97994.18
2019-03-06T04:35:55.562Z,97989.59
2019-03-06T04:38:29.010Z,97994.89
2019-03-06T04:40:59.737Z,97998.61
2019-03-06T04:43:30.277Z,97991.77
2019-03-06T04:46:00.974Z,97996.28
2019-03-06T04:48:31.570Z,98000.75
2019-03-06T04:51:04.884Z,97996.59
2019-03-06T04:53:35.416Z,97994.23
2019-03-06T04:56:06.101Z,97995.95
2019-03-06T04:58:36.869Z,98002.63
2019-03-06T05:01:07.420Z,97999.35
2019-03-06T05:03:37.840Z,98001.72
2019-03-06T05:06:08.567Z,98004.80
2019-03-06T05:08:39.461Z,98003.89
2019-03-06T05:11:13.628Z,98006.44
2019-03-06T05:13:44.248Z,98005.59
2019-03-06T05:16:14.772Z,98006.91
2019-03-06T05:18:51.657Z,98005.56
2019-03-06T05:21:22.419Z,98016.99
2019-03-06T05:23:52.983Z,98022.73
2019-03-06T05:26:23.545Z,98022.72
2019-03-06T05:28:56.166Z,98025.34
2019-03-06T05:31:26.971Z,98027.48
2019-03-06T05:33:57.773Z,98041.91
2019-03-06T05:37:02.324Z,98043.89
2019-03-06T05:39:32.999Z,98062.48
2019-03-06T05:42:03.469Z,98062.80
2019-03-06T05:44:34.334Z,98072.59
2019-03-06T05:47:04.874Z,98067.81
2019-03-06T05:49:35.319Z,98074.05
2019-03-06T05:52:06.014Z,98079.69
2019-03-06T05:54:36.765Z,98073.63
2019-03-06T05:57:09.288Z,98082.35
2019-03-06T05:59:39.809Z,98077.34
2019-03-06T06:02:10.754Z,98082.38
2019-03-06T06:04:41.527Z,98085.30
2019-03-06T06:07:12.473Z,98077.03
2019-03-06T06:09:43.112Z,98078.83
2019-03-06T06:12:14.018Z,98067.27
2019-03-06T06:14:44.755Z,98069.38
2019-03-06T06:17:15.511Z,98068.66
2019-03-06T06:19:46.275Z,98059.00
2019-03-06T06:22:41.212Z,98064.14
2019-03-06T06:25:12.089Z,98065.95
2019-03-06T06:27:42.665Z,98067.01
2019-03-06T06:30:14.008Z,98075.98
2019-03-06T06:32:44.741Z,98089.70
2019-03-06T06:35:15.396Z,98091.16
2019-03-06T06:37:45.812Z,98079.09
2019-03-06T06:40:16.543Z,98093.00
2019-03-06T06:42:47.294Z,98103.69
2019-03-06T06:45:17.864Z,98103.33
2019-03-06T06:48:09.646Z,98110.11
2019-03-06T06:50:43.119Z,98122.12
2019-03-06T06:53:40.634Z,98126.53
2019-03-06T06:56:55.648Z,98131.26
2019-03-06T07:00:10.518Z,98137.08
2019-03-06T07:03:20.066Z,98142.55
2019-03-06T07:06:13.707Z,98136.28
2019-03-06T07:09:01.434Z,98140.88
2019-03-06T07:12:05.456Z,98143.41
2019-03-06T07:15:05.677Z,98136.14
2019-03-06T07:17:44.130Z,98146.18
2019-03-06T07:20:44.688Z,98149.78
2019-03-06T07:23:25.580Z,98154.41
2019-03-06T07:26:12.242Z,98145.40
2019-03-06T07:28:48.571Z,98146.33
2019-03-06T07:31:49.795Z,98144.06
2019-03-06T07:34:38.106Z,98138.74
2019-03-06T07:37:28.592Z,98147.94
2019-03-06T07:40:02.679Z,98131.35
2019-03-06T07:42:48.111Z,98138.67
2019-03-06T07:45:51.445Z,98135.16
2019-03-06T07:48:46.658Z,98138.19
2019-03-06T07:51:32.010Z,98134.16
2019-03-06T07:54:23.845Z,98124.14
2019-03-06T07:56:59.352Z,98123.73
2019-03-06T07:59:29.750Z,98119.37
2019-03-06T08:02:06.396Z,98122.02
2019-03-06T08:04:36.838Z,98124.44
2019-03-06T08:07:14.371Z,98127.83
2019-03-06T08:09:44.669Z,98125.73
2019-03-06T08:12:48.875Z,98136.62
2019-03-06T08:15:36.824Z,98131.72
2019-03-06T08:18:37.576Z,98135.92
2019-03-06T08:21:22.790Z,98137.44
2019-03-06T08:24:23.603Z,98146.51
2019-03-06T08:26:53.985Z,98152.36
2019-03-06T08:29:24.276Z,98147.89
2019-03-06T08:31:57.274Z,98146.77
2019-03-06T08:34:27.908Z,98152.08
2019-03-06T08:37:05.030Z,98154.30
2019-03-06T08:39:35.421Z,98157.48
2019-03-06T08:42:05.954Z,98162.91
2019-03-06T08:44:41.683Z,98168.31
2019-03-06T08:47:32.004Z,98177.36
2019-03-06T08:50:15.149Z,98176.59
2019-03-06T08:53:11.177Z,98179.05
2019-03-06T08:55:52.942Z,98177.91
2019-03-06T08:58:36.896Z,98184.07
2019-03-06T09:01:37.759Z,98168.74
2019-03-06T09:04:30.835Z,98175.69
2019-03-06T09:07:19.778Z,98186.57
2019-03-06T09:10:07.592Z,98176.06
2019-03-06T09:12:59.347Z,98176.47
2019-03-06T09:15:43.762Z,98170.73
2019-03-06T09:18:39.308Z,98180.91
2019-03-06T09:21:24.463Z,98183.94
2019-03-06T09:24:12.701Z,98181.38
2019-03-06T09:27:02.307Z,98183.20
2019-03-06T09:29:51.649Z,98183.93
2019-03-06T09:32:38.869Z,98194.30
2019-03-06T09:35:30.598Z,98193.63
2019-03-06T09:38:14.712Z,98188.29
2019-03-06T09:41:02.328Z,98189.11
2019-03-06T09:44:09.083Z,98196.02
2019-03-06T09:47:07.486Z,98196.73
2019-03-06T09:49:56.735Z,98195.45
2019-03-06T09:52:54.434Z,98194.16
2019-03-06T09:55:49.606Z,98190.21
2019-03-06T09:58:41.699Z,98190.81
2019-03-06T10:01:34.123Z,98193.06
2019-03-06T10:04:17.949Z,98195.50
2019-03-06T10:07:05.951Z,98196.63
2019-03-06T10:10:10.507Z,98207.79
2019-03-06T10:12:59.739Z,98205.03
2019-03-06T10:16:04.713Z,98195.02
2019-03-06T10:18:53.740Z,98193.59
2019-03-06T10:21:25.727Z,98198.52
2019-03-06T10:23:56.562Z,98197.77
2019-03-06T10:26:28.919Z,98199.80
2019-03-06T10:28:59.608Z,98200.52
2019-03-06T10:31:30.290Z,98198.49
2019-03-06T10:34:00.978Z,98185.34
2019-03-06T10:36:31.701Z,98189.59
2019-03-06T10:39:02.382Z,98190.62
2019-03-06T10:41:33.131Z,98188.39
2019-03-06T10:44:03.782Z,98194.97
2019-03-06T10:46:34.509Z,98191.98
2019-03-06T10:49:05.122Z,98188.96
2019-03-06T10:51:35.766Z,98187.65
2019-03-06T10:54:06.498Z,98181.75
2019-03-06T10:56:37.253Z,98176.83
2019-03-06T10:59:07.953Z,98181.01
2019-03-06T11:01:41.639Z,98180.91
2019-03-06T11:04:35.182Z,98173.70
2019-03-06T11:07:06.181Z,98163.77
2019-03-06T11:09:37.129Z,98174.91
2019-03-06T11:12:08.663Z,98164.70
2019-03-06T11:14:39.477Z,98163.23
2019-03-06T11:17:10.303Z,98161.76
2019-03-06T11:19:40.992Z,98159.59
2019-03-06T11:22:11.726Z,98154.20
2019-03-06T11:24:42.308Z,98145.44
2019-03-06T11:27:12.971Z,98152.67
2019-03-06T11:29:43.345Z,98151.47
2019-03-06T11:32:14.366Z,98155.24
2019-03-06T11:34:44.868Z,98152.09
2019-03-06T11:37:15.500Z,98143.73
2019-03-06T11:39:45.901Z,98153.19
2019-03-06T11:42:16.247Z,98157.92
2019-03-06T11:44:46.866Z,98148.08
2019-03-06T11:47:17.342Z,98146.95
2019-03-06T11:49:48.051Z,98152.14
2019-03-06T11:52:18.336Z,98143.42
2019-03-06T11:54:48.635Z,98144.59
2019-03-06T11:57:18.991Z,98142.47
2019-03-06T11:59:49.616Z,98145.88
2019-03-06T12:02:21.055Z,98141.67
2019-03-06T12:04:51.717Z,98144.14
2019-03-06T12:07:22.182Z,98139.55
2019-03-06T12:09:52.929Z,98137.36
2019-03-06T12:12:23.442Z,98135.24
2019-03-06T12:14:56.588Z,98130.75
2019-03-06T12:17:27.034Z,98124.24
2019-03-06T12:19:57.532Z,98122.09
2019-03-06T12:22:28.176Z,98122.09
2019-03-06T12:24:58.724Z,98123.19
2019-03-06T12:27:29.354Z,98115.77
2019-03-06T12:30:00.325Z,98130.47
2019-03-06T12:32:30.756Z,98121.28
2019-03-06T12:35:01.248Z,98117.05
2019-03-06T12:37:31.559Z,98127.63
2019-03-06T12:40:02.025Z,98135.17
2019-03-06T12:42:32.639Z,98139.41
2019-03-06T12:45:02.859Z,98132.35
2019-03-06T12:47:33.223Z,98125.73
2019-03-06T12:50:06.169Z,98126.52
2019-03-06T12:52:36.562Z,98123.09
2019-03-06T12:55:07.839Z,98116.55
2019-03-06T12:57:38.320Z,98124.50
2019-03-06T13:00:16.345Z,98129.58
2019-03-06T13:02:46.787Z,98126.83
2019-03-06T13:05:17.481Z,98133.08
2019-03-06T13:07:47.848Z,98133.37
2019-03-06T13:10:19.342Z,98144.95
2019-03-06T13:12:50.599Z,98133.27
2019-03-06T13:15:24.175Z,98133.02
2019-03-06T13:17:55.480Z,98125.70
2019-03-06T13:20:25.938Z,98123.23
2019-03-06T13:22:56.503Z,98120.67
2019-03-06T13:25:27.283Z,98106.66
2019-03-06T13:27:57.887Z,98117.47
2019-03-06T13:30:28.704Z,98110.08
2019-03-06T13:33:05.914Z,98107.41
2019-03-06T13:35:36.897Z,98102.42
2019-03-06T13:38:07.522Z,98103.93
2019-03-06T13:40:37.903Z,98103.09
2019-03-06T13:43:08.309Z,98106.11
2019-03-06T13:45:39.034Z,98113.34
2019-03-06T13:48:09.687Z,98101.03
2019-03-06T13:50:39.914Z,98111.30
2019-03-06T13:53:10.294Z,98117.66
2019-03-06T13:55:40.833Z,98122.30
2019-03-06T13:58:11.241Z,98121.20
2019-03-06T14:00:41.870Z,98117.91
2019-03-06T14:03:12.607Z,98116.59
2019-03-06T14:05:43.363Z,98112.05
2019-03-06T14:08:13.718Z,98118.41
2019-03-06T14:10:44.221Z,98118.23
2019-03-06T14:13:15.027Z,98114.88
2019-03-06T14:15:53.657Z,98116.49
2019-03-06T14:18:18.248Z,98118.22
2019-03-06T14:20:48.839Z,98123.45
2019-03-06T14:23:19.484Z,98123.97
2019-03-06T14:25:50.128Z,98118.34
2019-03-06T14:28:20.610Z,98115.44
2019-03-06T14:30:51.395Z,98115.10
2019-03-06T14:33:23.974Z,98118.84
2019-03-06T14:35:54.920Z,98113.95
2019-03-06T14:38:25.462Z,98115.81
2019-03-06T14:40:56.600Z,98120.40
2019-03-06T14:43:27.021Z,98119.48
2019-03-06T14:45:57.612Z,98118.64
2019-03-06T14:48:28.538Z,98116.95
2019-03-06T14:50:59.614Z,98118.19
2019-03-06T14:53:30.135Z,98124.30
2019-03-06T14:56:00.643Z,98120.14
2019-03-06T14:58:31.446Z,98125.13
2019-03-06T15:01:02.204Z,98128.89
2019-03-06T15:03:32.586Z,98135.30
2019-03-06T15:06:03.076Z,98135.98
2019-03-06T15:08:33.663Z,98141.51
2019-03-06T15:11:04.203Z,98145.51
2019-03-06T15:13:34.667Z,98150.16
2019-03-06T15:16:05.558Z,98149.89
2019-03-06T15:18:37.097Z,98155.57
2019-03-06T15:21:08.036Z,98161.03
2019-03-06T15:23:38.581Z,98160.36
2019-03-06T15:26:10.005Z,98164.83
2019-03-06T15:28:40.531Z,98169.28
2019-03-06T15:31:11.428Z,98172.03
2019-03-06T15:33:41.783Z,98172.20
2019-03-06T15:36:12.215Z,98169.80
2019-03-06T15:38:42.714Z,98172.64
2019-03-06T15:41:13.523Z,98176.00
2019-03-06T15:43:44.358Z,98180.63
2019-03-06T15:46:14.986Z,98188.34
2019-03-06T15:48:45.381Z,98189.67
2019-03-06T15:51:15.992Z,98193.06
2019-03-06T15:53:47.360Z,98196.37
2019-03-06T15:56:17.838Z,98201.69
2019-03-06T15:58:48.701Z,98198.00
2019-03-06T16:01:19.865Z,98201.33
2019-03-06T16:03:50.619Z,98203.34
2019-03-06T16:06:21.614Z,98209.08
2019-03-06T16:08:52.449Z,98212.56
2019-03-06T16:11:23.175Z,98212.44
2019-03-06T16:13:53.613Z,98217.73
2019-03-06T16:16:24.254Z,98225.33
2019-03-06T16:18:54.772Z,98233.36
2019-03-06T16:21:25.308Z,98234.89
2019-03-06T16:23:56.008Z,98243.53
2019-03-06T16:26:26.723Z,98245.91
2019-03-06T16:28:57.312Z,98242.50
2019-03-06T16:31:27.954Z,98243.92
2019-03-06T16:33:58.485Z,98253.52
2019-03-06T16:36:29.662Z,98244.12
2019-03-06T16:39:00.208Z,98260.10
2019-03-06T16:41:30.678Z,98264.74
2019-03-06T16:44:01.226Z,98268.69
2019-03-06T16:46:32.040Z,98270.63
2019-03-06T16:49:02.536Z,98277.75
2019-03-06T16:51:33.210Z,98282.45
2019-03-06T16:54:03.760Z,98282.50
2019-03-06T16:56:34.242Z,98285.53
2019-03-06T16:59:04.754Z,98294.94
2019-03-06T17:01:35.590Z,98292.22
2019-03-06T17:04:07.614Z,98297.78
2019-03-06T17:06:38.282Z,98304.80
2019-03-06T17:09:09.463Z,98308.34
2019-03-06T17:11:40.275Z,98308.41
2019-03-06T17:14:10.931Z,98323.17
2019-03-06T17:16:41.185Z,98328.20
2019-03-06T17:19:13.383Z,98332.27
2019-03-06T17:21:44.043Z,98338.57
2019-03-06T17:24:14.737Z,98339.23
2019-03-06T17:26:45.422Z,98337.78
2019-03-06T17:29:16.709Z,98341.42
2019-03-06T17:31:47.155Z,98349.05
2019-03-06T17:34:18.122Z,98352.31
2019-03-06T17:36:48.617Z,98351.69
2019-03-06T17:39:19.496Z,98354.58
2019-03-06T17:41:50.091Z,98355.09
2019-03-06T17:44:21.320Z,98361.14
2019-03-06T17:46:53.718Z,98368.67
2019-03-06T17:49:24.767Z,98367.16
2019-03-06T17:51:55.327Z,98374.50
2019-03-06T17:54:25.737Z,98382.03
2019-03-06T17:56:56.229Z,98385.40
2019-03-06T17:59:27.049Z,98390.01
2019-03-06T18:01:57.654Z,98390.42
2019-03-06T18:04:29.501Z,98389.84
2019-03-06T18:07:00.096Z,98395.03
2019-03-06T18:09:33.052Z,98391.63
2019-03-06T18:12:03.790Z,98396.42
2019-03-06T18:14:34.541Z,98398.92
2019-03-06T18:17:05.349Z,98402.75
2019-03-06T18:19:36.317Z,98406.01
2019-03-06T18:22:07.559Z,98408.92
2019-03-06T18:24:38.138Z,98413.73
2019-03-06T18:27:09.696Z,98412.76
2019-03-06T18:29:40.375Z,98421.66
2019-03-06T18:32:12.132Z,98423.80
2019-03-06T18:34:42.660Z,98419.00
2019-03-06T18:37:13.590Z,98410.30
2019-03-06T18:39:44.141Z,98408.29
2019-03-06T18:42:16.156Z,98410.05
2019-03-06T18:44:47.371Z,98416.86
2019-03-06T18:47:17.999Z,98419.83
2019-03-06T18:49:48.868Z,98423.27
2019-03-06T18:52:27.196Z,98420.09
2019-03-06T18:54:58.273Z,98419.35
2019-03-06T18:57:28.985Z,98418.09
2019-03-06T19:00:00.125Z,98416.84
2019-03-06T19:02:32.404Z,98417.36
2019-03-06T19:05:03.830Z,98415.84
2019-03-06T19:07:34.727Z,98422.23
2019-03-06T19:10:06.026Z,98423.70
2019-03-06T19:12:36.624Z,98428.78
2019-03-06T19:15:08.425Z,98426.02
2019-03-06T19:17:39.092Z,98428.52
2019-03-06T19:20:11.254Z,98425.59
2019-03-06T19:22:41.744Z,98430.05
2019-03-06T19:25:13.818Z,98440.60
2019-03-06T19:27:44.820Z,98438.89
2019-03-06T19:30:20.177Z,98439.22
2019-03-06T19:32:51.088Z,98448.81
2019-03-06T19:35:22.187Z,98448.47
2019-03-06T19:37:53.182Z,98449.71
2019-03-06T19:40:23.744Z,98456.28
2019-03-06T19:42:54.182Z,98449.67
2019-03-06T19:45:24.835Z,98460.74
2019-03-06T19:47:55.610Z,98460.22
2019-03-06T19:50:26.321Z,98462.26
2019-03-06T19:52:58.272Z,98461.02
2019-03-06T19:55:28.847Z,98458.19
2019-03-06T19:58:06.017Z,98461.66
2019-03-06T20:00:36.905Z,98460.85
2019-03-06T20:03:09.585Z,98457.66
2019-03-06T20:05:43.165Z,98456.56
2019-03-06T20:08:14.049Z,98451.46
2019-03-06T20:10:44.645Z,98446.88
2019-03-06T20:13:15.333Z,98453.41
2019-03-06T20:15:45.987Z,98450.61
2019-03-06T20:18:16.525Z,98451.98
2019-03-06T20:20:47.057Z,98447.48
2019-03-06T20:23:17.639Z,98451.00
2019-03-06T20:25:48.238Z,98452.19
2019-03-06T20:28:20.225Z,98460.64
2019-03-06T20:30:53.543Z,98462.30
2019-03-06T20:33:24.418Z,98457.73
2019-03-06T20:35:55.301Z,98473.97
2019-03-06T20:38:25.830Z,98475.89
2019-03-06T20:40:56.401Z,98474.37
2019-03-06T20:43:27.000Z,98476.79
2019-03-06T20:45:58.752Z,98484.53
2019-03-06T20:48:29.398Z,98492.31
2019-03-06T20:51:00.211Z,98493.30
2019-03-06T20:53:30.799Z,98491.43
2019-03-06T20:56:01.312Z,98488.58
2019-03-06T20:58:31.876Z,98490.09
2019-03-06T21:01:03.015Z,98481.61
2019-03-06T21:03:33.732Z,98481.23
2019-03-06T21:06:04.509Z,98488.14
2019-03-06T21:08:35.274Z,98486.43
2019-03-06T21:11:05.985Z,98486.55
2019-03-06T21:13:36.585Z,98486.73
2019-03-06T21:16:07.267Z,98488.01
2019-03-06T21:18:38.085Z,98487.53
2019-03-06T21:21:08.903Z,98483.49
2019-03-06T21:23:39.513Z,98485.45
2019-03-06T21:26:09.983Z,98477.52
2019-03-06T21:28:40.343Z,98477.67
2019-03-06T21:31:11.014Z,98479.14
2019-03-06T21:33:41.919Z,98483.20
2019-03-06T21:36:12.575Z,98484.19
2019-03-06T21:38:43.322Z,98482.27
2019-03-06T21:41:13.907Z,98478.66
2019-03-06T21:43:44.607Z,98479.05
2019-03-06T21:46:15.076Z,98477.80
2019-03-06T21:48:46.507Z,98470.88
2019-03-06T21:51:16.948Z,98466.27
2019-03-06T21:53:47.666Z,98463.72
2019-03-06T21:56:18.162Z,98467.30
2019-03-06T21:58:48.708Z,98458.31
2019-03-06T22:01:19.426Z,98458.92
2019-03-06T22:03:50.064Z,98457.92
2019-03-06T22:06:20.427Z,98470.89
2019-03-06T22:08:50.963Z,98474.63
2019-03-06T22:11:21.495Z,98480.91
2019-03-06T22:13:52.053Z,98483.78
2019-03-06T22:16:22.607Z,98472.78
2019-03-06T22:18:53.182Z,98486.25
2019-03-06T22:21:23.699Z,98485.55
2019-03-06T22:23:56.550Z,98493.09
2019-03-06T22:26:27.252Z,98505.35
2019-03-06T22:28:57.892Z,98506.52
2019-03-06T22:31:30.663Z,98514.78
2019-03-06T22:34:01.415Z,98511.44
2019-03-06T22:36:32.013Z,98514.67
2019-03-06T22:39:02.785Z,98514.16
2019-03-06T22:41:33.270Z,98514.75
2019-03-06T22:44:03.709Z,98504.38
2019-03-06T22:46:34.517Z,98502.73
2019-03-06T22:49:05.085Z,98497.56
2019-03-06T22:51:35.510Z,98501.23
2019-03-06T22:54:08.482Z,98503.52
2019-03-06T22:56:39.218Z,98499.63
2019-03-06T22:59:09.565Z,98505.38
2019-03-06T23:01:41.436Z,98508.39
2019-03-06T23:04:12.060Z,98510.69
2019-03-06T23:06:42.759Z,98510.78
2019-03-06T23:09:13.614Z,98514.24
2019-03-06T23:11:44.031Z,98513.73
2019-03-06T23:14:16.101Z,98515.05
2019-03-06T23:16:46.826Z,98514.04
2019-03-06T23:19:17.398Z,98511.86
2019-03-06T23:21:47.747Z,98509.61
2019-03-06T23:24:18.506Z,98522.93
2019-03-06T23:26:49.252Z,98533.31
2019-03-06T23:29:19.952Z,98542.72
2019-03-06T23:31:50.643Z,98561.37
2019-03-06T23:34:21.340Z,98565.51
2019-03-06T23:36:52.156Z,98572.05
2019-03-06T23:39:22.791Z,98574.30
2019-03-06T23:41:53.534Z,98575.40
2019-03-06T23:44:24.165Z,98580.66
2019-03-06T23:46:54.635Z,98592.27
2019-03-06T23:49:25.340Z,98593.56
2019-03-06T23:52:06.997Z,98586.52
2019-03-06T23:54:37.814Z,98580.30
2019-03-06T23:57:08.630Z,98574.39
2019-03-06T23:59:39.236Z,98570.09
